Time;durP1;ratioP1;P1;durP2;ratioP2;P2;SDS_P1;SDS_P2;PMS_P1;PMS_P2;Temp;Humidity;BMP_temperature;BMP_pressure;BME280_temperature;BME280_humidity;BME280_pressure;Samples;Min_cycle;Max_cycle;Signal;HPM_P1;HPM_P2
2022/08/14 00:01:55;;;;;;;6.47;4.80;;;23.10;99.90;;;;;;5056568;28;20249;-69
2022/08/14 00:04:23;;;;;;;5.10;4.60;;;23.20;99.90;;;;;;5062549;28;20685;-68
2022/08/14 00:07:10;;;;;;;5.25;4.68;;;23.20;99.90;;;;;;5062433;28;20206;-68
2022/08/14 00:09:37;;;;;;;6.88;5.03;;;23.20;99.90;;;;;;5063696;28;20289;-69
2022/08/14 00:12:21;;;;;;;6.78;4.65;;;23.20;99.90;;;;;;5066173;28;20601;-69
2022/08/14 00:14:51;;;;;;;5.68;5.07;;;23.10;99.90;;;;;;5039884;28;20262;-69
2022/08/14 00:17:21;;;;;;;6.55;5.13;;;23.10;99.90;;;;;;5059541;28;20207;-69
2022/08/14 00:19:47;;;;;;;5.78;5.03;;;23.10;99.90;;;;;;5063721;28;20186;-69
2022/08/14 00:22:17;;;;;;;7.97;4.97;;;23.10;99.90;;;;;;5062168;28;20683;-69
2022/08/14 00:25:08;;;;;;;5.78;4.53;;;23.00;99.90;;;;;;5061774;28;20702;-68
2022/08/14 00:27:36;;;;;;;5.65;4.72;;;22.90;99.90;;;;;;5056993;28;20195;-69
2022/08/14 00:30:09;;;;;;;5.55;4.70;;;23.00;99.90;;;;;;5065824;28;20220;-69
2022/08/14 00:32:40;;;;;;;6.45;5.22;;;23.00;99.90;;;;;;5064859;28;20749;-68
2022/08/14 00:35:22;;;;;;;12.45;8.35;;;23.00;99.90;;;;;;5061798;28;20242;-68
2022/08/14 00:38:09;;;;;;;21.92;13.27;;;23.00;99.90;;;;;;5062038;28;20202;-69
2022/08/14 00:40:36;;;;;;;12.57;8.20;;;22.90;99.90;;;;;;5062122;28;20191;-68
2022/08/14 00:43:03;;;;;;;11.13;7.53;;;22.90;99.90;;;;;;5065560;28;20194;-66
2022/08/14 00:45:30;;;;;;;13.07;8.45;;;22.90;99.90;;;;;;5063930;28;20222;-68
2022/08/14 00:47:57;;;;;;;9.20;6.40;;;22.90;99.90;;;;;;5065316;28;20202;-69
2022/08/14 00:50:27;;;;;;;6.68;5.95;;;22.90;99.90;;;;;;5064949;28;20206;-69
2022/08/14 00:52:54;;;;;;;6.43;5.30;;;22.80;99.90;;;;;;5061601;28;20194;-68
2022/08/14 00:55:22;;;;;;;7.00;5.32;;;22.70;99.90;;;;;;5060825;28;20228;-69
2022/08/14 00:58:29;;;;;;;7.28;5.60;;;22.70;99.90;;;;;;5063382;28;20186;-69
2022/08/14 01:00:36;;;;;;;6.38;5.20;;;22.80;99.90;;;;;;5063011;28;20210;-68
2022/08/14 01:03:18;;;;;;;7.38;5.70;;;22.70;99.90;;;;;;5065316;28;20199;-68
2022/08/14 01:05:49;;;;;;;7.30;5.55;;;22.60;99.90;;;;;;5046686;28;20293;-68
2022/08/14 01:08:20;;;;;;;6.60;5.50;;;22.60;99.90;;;;;;5058036;28;20195;-69
2022/08/14 01:11:07;;;;;;;8.40;5.22;;;22.50;99.90;;;;;;5056863;28;20214;-67
2022/08/14 01:13:39;;;;;;;6.10;5.50;;;22.60;99.90;;;;;;5051592;28;20203;-68
2022/08/14 01:16:12;;;;;;;6.78;5.70;;;22.60;99.90;;;;;;5055354;28;20309;-68
2022/08/14 01:21:36;;;;;;;8.43;5.80;;;22.60;99.90;;;;;;5051400;28;20218;-68
2022/08/14 01:24:09;;;;;;;5.78;5.18;;;22.50;99.90;;;;;;5051194;28;20611;-67
2022/08/14 01:26:36;;;;;;;8.13;6.32;;;22.40;99.90;;;;;;5050848;28;20210;-68
2022/08/14 01:29:05;;;;;;;6.25;5.53;;;22.40;99.90;;;;;;5051182;28;20607;-68
2022/08/14 01:31:45;;;;;;;6.45;5.75;;;22.30;99.90;;;;;;5044054;28;20222;-68
2022/08/14 01:34:16;;;;;;;7.03;5.82;;;22.20;99.90;;;;;;5070998;28;20198;-68
2022/08/14 01:37:03;;;;;;;6.75;5.85;;;22.20;99.90;;;;;;5057016;28;20198;-69
2022/08/14 01:39:33;;;;;;;5.88;5.28;;;22.00;99.90;;;;;;5051163;28;20226;-68
2022/08/14 01:42:04;;;;;;;5.93;5.32;;;21.90;99.90;;;;;;5051120;28;20281;-69
2022/08/14 01:44:36;;;;;;;8.65;5.97;;;21.60;99.90;;;;;;5050525;28;20198;-68
2022/08/14 01:47:14;;;;;;;9.40;6.40;;;21.60;99.90;;;;;;5050869;28;20293;-68
2022/08/14 01:49:50;;;;;;;7.22;6.22;;;21.70;99.90;;;;;;5050874;28;20199;-68
2022/08/14 01:52:35;;;;;;;7.30;6.10;;;21.60;99.90;;;;;;5050423;28;20285;-68
2022/08/14 01:55:24;;;;;;;7.75;6.78;;;21.50;99.90;;;;;;5050316;28;20280;-68
2022/08/14 01:57:54;;;;;;;9.55;6.60;;;21.50;99.90;;;;;;5050615;28;20476;-69
2022/08/14 02:00:40;;;;;;;7.95;6.38;;;21.40;99.90;;;;;;5050532;28;20237;-68
2022/08/14 02:03:07;;;;;;;7.20;6.43;;;21.50;99.90;;;;;;5050422;28;20205;-68
2022/08/14 02:05:35;;;;;;;7.28;6.43;;;21.70;99.90;;;;;;5050153;28;20229;-68
2022/08/14 02:08:05;;;;;;;7.68;6.65;;;21.70;99.90;;;;;;5050220;28;20592;-68
2022/08/14 02:10:39;;;;;;;7.95;6.60;;;21.70;99.90;;;;;;5050703;28;20211;-67
2022/08/14 02:13:15;;;;;;;7.00;6.13;;;21.80;99.90;;;;;;5050260;28;20231;-68
2022/08/14 02:15:43;;;;;;;21.05;6.95;;;21.70;99.90;;;;;;5050205;28;20218;-68
2022/08/14 02:18:10;;;;;;;9.20;7.03;;;21.80;99.90;;;;;;5050300;28;20704;-69
2022/08/14 02:20:40;;;;;;;7.53;6.25;;;21.70;99.90;;;;;;5050447;28;20252;-68
2022/08/14 02:23:07;;;;;;;7.70;6.72;;;21.70;99.90;;;;;;5054129;28;20662;-68
2022/08/14 02:25:35;;;;;;;7.55;6.45;;;21.60;99.90;;;;;;5052014;28;20222;-68
2022/08/14 02:28:02;;;;;;;8.25;6.28;;;21.50;99.90;;;;;;5050243;28;20206;-68
2022/08/14 02:30:49;;;;;;;8.43;6.28;;;21.60;99.90;;;;;;5051193;28;20598;-68
2022/08/14 02:33:18;;;;;;;8.07;6.83;;;21.50;99.90;;;;;;5050217;28;20211;-68
2022/08/14 02:35:45;;;;;;;7.43;6.60;;;21.10;99.90;;;;;;5049643;28;20219;-68
2022/08/14 02:38:19;;;;;;;9.57;7.17;;;20.90;99.90;;;;;;5033635;28;20195;-68
2022/08/14 02:40:57;;;;;;;9.77;7.63;;;20.70;99.90;;;;;;5049986;28;20202;-68
2022/08/14 02:43:29;;;;;;;8.37;7.10;;;20.70;99.90;;;;;;5050161;28;20198;-68
2022/08/14 02:46:02;;;;;;;7.50;6.40;;;20.80;99.90;;;;;;5050148;28;20309;-68
2022/08/14 02:48:35;;;;;;;8.63;6.97;;;20.90;99.90;;;;;;5050360;28;20289;-68
2022/08/14 02:51:22;;;;;;;9.57;6.70;;;20.90;99.90;;;;;;5050601;28;20256;-68
2022/08/14 02:53:49;;;;;;;8.57;7.17;;;20.70;99.90;;;;;;5050002;28;20195;-68
2022/08/14 02:56:18;;;;;;;7.17;6.23;;;20.70;99.90;;;;;;5049435;28;20227;-67
2022/08/14 02:59:06;;;;;;;8.10;6.30;;;20.50;99.90;;;;;;5035247;28;20198;-68
2022/08/14 03:01:35;;;;;;;8.40;6.40;;;20.30;99.90;;;;;;5051309;28;20198;-69
2022/08/14 03:04:16;;;;;;;10.93;7.00;;;20.10;99.90;;;;;;5052683;28;20229;-68
2022/08/14 03:06:47;;;;;;;8.87;7.00;;;20.10;99.90;;;;;;5053664;28;20252;-68
2022/08/14 03:09:32;;;;;;;8.40;7.00;;;20.00;99.90;;;;;;5054020;28;20198;-68
2022/08/14 03:12:20;;;;;;;8.93;7.37;;;20.00;99.90;;;;;;5053721;28;20336;-68
2022/08/14 03:15:12;;;;;;;7.97;6.97;;;19.90;99.90;;;;;;5053287;28;20229;-69
2022/08/14 03:17:42;;;;;;;9.63;7.57;;;19.90;99.90;;;;;;5053492;28;20213;-68
2022/08/14 03:20:27;;;;;;;8.37;7.17;;;19.80;99.90;;;;;;5053620;28;20282;-68
2022/08/14 03:22:58;;;;;;;8.20;7.10;;;20.00;99.90;;;;;;5053775;28;20485;-68
2022/08/14 03:25:25;;;;;;;9.20;6.90;;;20.10;99.90;;;;;;5053758;28;20262;-68
2022/08/14 03:27:52;;;;;;;9.70;7.73;;;20.00;99.90;;;;;;5053530;28;20211;-68
2022/08/14 03:30:30;;;;;;;9.60;7.30;;;20.10;99.90;;;;;;5053399;28;20214;-67
2022/08/14 03:33:08;;;;;;;10.13;7.40;;;20.00;99.90;;;;;;5054035;28;20221;-67
2022/08/14 03:35:36;;;;;;;9.27;7.23;;;20.10;99.90;;;;;;5052671;28;20610;-69
2022/08/14 03:38:23;;;;;;;8.30;7.00;;;20.10;99.90;;;;;;5053764;28;20199;-68
2022/08/14 03:41:16;;;;;;;9.30;7.27;;;19.90;99.90;;;;;;5053588;28;20199;-68
2022/08/14 03:43:44;;;;;;;8.27;6.90;;;19.80;99.90;;;;;;5053290;28;20195;-69
2022/08/14 03:46:12;;;;;;;8.33;7.33;;;19.80;99.90;;;;;;5052810;28;20296;-68
2022/08/14 03:49:01;;;;;;;9.80;7.40;;;19.80;99.90;;;;;;5054009;28;20206;-68
2022/08/14 03:51:29;;;;;;;11.50;7.80;;;19.60;99.90;;;;;;5054225;28;20199;-68
2022/08/14 03:53:56;;;;;;;9.20;7.83;;;19.50;99.90;;;;;;5055192;28;20210;-69
2022/08/14 03:56:25;;;;;;;9.03;7.53;;;19.40;99.90;;;;;;5035423;28;20264;-68
2022/08/14 03:58:57;;;;;;;12.40;7.87;;;19.50;99.90;;;;;;5054010;28;20219;-69
2022/08/14 04:01:25;;;;;;;8.67;7.77;;;19.40;99.90;;;;;;5053596;28;20191;-68
2022/08/14 04:04:05;;;;;;;9.90;7.77;;;19.60;99.90;;;;;;5054665;28;20290;-68
2022/08/14 04:06:37;;;;;;;9.97;8.20;;;19.60;99.90;;;;;;5052814;28;20219;-68
2022/08/14 04:09:14;;;;;;;11.73;8.27;;;19.50;99.90;;;;;;5053224;28;20285;-68
2022/08/14 04:11:42;;;;;;;11.27;8.17;;;19.30;99.90;;;;;;5052854;28;20629;-68
2022/08/14 04:14:09;;;;;;;8.93;7.67;;;19.20;99.90;;;;;;5052641;28;20207;-67
2022/08/14 04:16:46;;;;;;;9.23;8.00;;;19.50;99.90;;;;;;5052092;28;20740;-69
2022/08/14 04:19:17;;;;;;;10.73;8.70;;;19.70;99.90;;;;;;5034817;28;20194;-68
2022/08/14 04:21:44;;;;;;;11.27;8.50;;;19.50;99.90;;;;;;5052664;28;21479;-68
2022/08/14 04:24:33;;;;;;;9.20;8.20;;;19.30;99.90;;;;;;5052428;28;20198;-68
2022/08/14 04:27:12;;;;;;;10.03;7.87;;;19.40;99.90;;;;;;5035552;28;20198;-68
2022/08/14 04:29:42;;;;;;;9.27;7.70;;;19.40;99.90;;;;;;5052457;28;20206;-68
2022/08/14 04:32:11;;;;;;;9.73;7.93;;;19.50;99.90;;;;;;5052488;28;20233;-68
2022/08/14 04:34:59;;;;;;;9.63;7.60;;;19.40;99.90;;;;;;5052269;28;20593;-68
2022/08/14 04:46:06;;;;;;;10.03;8.20;;;19.10;99.90;;;;;;5052046;28;20218;-68
2022/08/14 04:48:33;;;;;;;10.50;8.27;;;19.00;99.90;;;;;;5051965;28;20209;-68
2022/08/14 04:51:12;;;;;;;10.30;8.40;;;19.00;99.90;;;;;;5056340;28;20198;-68
2022/08/14 04:53:42;;;;;;;10.67;8.37;;;19.00;99.90;;;;;;5051865;28;20202;-69
2022/08/14 04:56:12;;;;;;;10.77;8.13;;;19.20;99.90;;;;;;5051597;28;20309;-68
2022/08/14 04:59:03;;;;;;;9.00;8.07;;;19.30;99.90;;;;;;5051681;28;20210;-68
2022/08/14 05:01:35;;;;;;;9.37;8.17;;;19.50;99.90;;;;;;5051898;28;20198;-68
2022/08/14 05:04:06;;;;;;;12.10;8.70;;;19.50;99.90;;;;;;5051834;28;20202;-68
2022/08/14 05:06:32;;;;;;;10.60;8.20;;;19.60;99.90;;;;;;5034457;28;20642;-68
2022/08/14 05:09:06;;;;;;;11.03;8.30;;;19.50;99.90;;;;;;5057820;28;20199;-68
2022/08/14 05:11:36;;;;;;;10.63;8.17;;;19.50;99.90;;;;;;5051450;28;20199;-69
2022/08/14 05:14:03;;;;;;;9.47;8.10;;;19.60;99.90;;;;;;5051772;28;20198;-68
2022/08/14 05:16:50;;;;;;;10.77;7.97;;;19.60;99.90;;;;;;5050951;28;20694;-69
2022/08/14 05:19:18;;;;;;;10.47;8.27;;;19.60;99.90;;;;;;5051625;28;20257;-68
2022/08/14 05:21:59;;;;;;;8.93;7.67;;;19.70;99.90;;;;;;5051416;28;20217;-68
2022/08/14 05:24:47;;;;;;;11.03;8.60;;;19.80;99.90;;;;;;5051224;28;20195;-68
2022/08/14 05:27:19;;;;;;;9.87;8.83;;;19.90;99.90;;;;;;5064956;28;20198;-68
2022/08/14 05:29:50;;;;;;;10.07;8.37;;;20.20;99.90;;;;;;5071114;28;20197;-68
2022/08/14 05:32:17;;;;;;;10.67;8.67;;;20.40;99.90;;;;;;5071254;28;20213;-68
2022/08/14 05:34:46;;;;;;;9.70;8.70;;;20.50;99.90;;;;;;5070323;28;20203;-68
2022/08/14 05:37:13;;;;;;;11.10;8.40;;;20.70;99.90;;;;;;5051002;28;20706;-68
2022/08/14 05:39:41;;;;;;;10.00;8.90;;;20.90;99.90;;;;;;5051029;28;20194;-68
2022/08/14 05:42:08;;;;;;;10.03;8.00;;;20.90;99.90;;;;;;5051067;28;20226;-68
2022/08/14 05:44:48;;;;;;;11.93;8.77;;;21.00;99.90;;;;;;5050199;28;20241;-68
2022/08/14 05:47:16;;;;;;;11.23;8.87;;;21.10;99.90;;;;;;5051015;28;20618;-69
2022/08/14 05:49:44;;;;;;;9.68;8.40;;;21.30;99.90;;;;;;5050828;28;20668;-68
2022/08/14 05:52:11;;;;;;;10.80;8.83;;;21.60;99.90;;;;;;5050900;28;20522;-68
2022/08/14 05:54:43;;;;;;;13.32;8.70;;;22.00;99.90;;;;;;5050163;28;20692;-68
2022/08/14 05:57:10;;;;;;;10.32;8.27;;;22.30;99.90;;;;;;5050363;28;20218;-68
2022/08/14 05:59:37;;;;;;;9.45;8.00;;;22.50;99.90;;;;;;5050685;28;20195;-68
2022/08/14 06:02:08;;;;;;;10.07;8.75;;;22.60;99.90;;;;;;5050560;28;20195;-68
2022/08/14 06:04:37;;;;;;;9.18;8.18;;;22.60;99.90;;;;;;5059045;28;20198;-68
2022/08/14 06:07:05;;;;;;;9.95;7.95;;;22.70;99.90;;;;;;5066445;28;20202;-69
2022/08/14 06:09:32;;;;;;;9.32;8.32;;;22.60;99.90;;;;;;5050952;28;20216;-67
2022/08/14 06:12:07;;;;;;;9.65;8.50;;;22.60;99.90;;;;;;5050696;28;20206;-68
2022/08/14 06:14:35;;;;;;;9.07;8.07;;;22.70;99.90;;;;;;5051911;28;20195;-68
2022/08/14 06:17:02;;;;;;;9.77;8.60;;;22.70;99.90;;;;;;5050483;28;20223;-68
2022/08/14 06:19:29;;;;;;;10.70;8.82;;;22.80;99.90;;;;;;5057924;28;20692;-69
2022/08/14 06:21:56;;;;;;;9.02;8.00;;;22.90;99.90;;;;;;5056882;28;20249;-68
2022/08/14 06:24:26;;;;;;;10.95;8.60;;;23.00;99.90;;;;;;5050417;28;20616;-66
2022/08/14 06:26:56;;;;;;;10.80;9.38;;;23.00;99.90;;;;;;5050664;28;20309;-67
2022/08/14 06:29:32;;;;;;;10.05;8.68;;;23.10;99.90;;;;;;5050491;28;20277;-69
2022/08/14 06:32:01;;;;;;;10.63;8.25;;;23.20;99.90;;;;;;5050624;28;20213;-68
2022/08/14 06:34:48;;;;;;;9.60;8.35;;;23.20;99.90;;;;;;5035014;28;20678;-68
2022/08/14 06:37:42;;;;;;;9.82;8.45;;;23.30;99.90;;;;;;5049947;28;20214;-69
2022/08/14 06:40:11;;;;;;;13.20;9.05;;;23.40;99.90;;;;;;5050137;28;20206;-69
2022/08/14 06:42:56;;;;;;;9.77;8.18;;;23.60;99.90;;;;;;5050182;28;20194;-67
2022/08/14 06:45:26;;;;;;;11.00;8.50;;;23.60;99.90;;;;;;5049572;28;20226;-68
2022/08/14 06:47:54;;;;;;;9.32;8.15;;;23.70;99.90;;;;;;5050227;28;20187;-69
2022/08/14 06:50:26;;;;;;;10.70;9.02;;;23.60;99.90;;;;;;5049887;28;20228;-68
2022/08/14 06:52:57;;;;;;;10.30;8.55;;;23.80;99.90;;;;;;5049823;28;20650;-69
2022/08/14 06:55:24;;;;;;;9.90;8.85;;;23.80;99.90;;;;;;5049474;28;20215;-68
2022/08/14 06:57:54;;;;;;;10.32;8.48;;;23.80;99.90;;;;;;5049983;28;20191;-68
2022/08/14 07:00:26;;;;;;;9.85;8.80;;;23.80;99.90;;;;;;5049961;28;20195;-68
2022/08/14 07:05:49;;;;;;;9.85;8.60;;;24.20;99.90;;;;;;5049106;28;20234;-68
2022/08/14 07:08:25;;;;;;;9.30;7.93;;;24.70;99.90;;;;;;5050032;28;20198;-67
2022/08/14 07:10:58;;;;;;;9.50;7.93;;;25.00;99.90;;;;;;5049845;28;20191;-68
2022/08/14 07:13:26;;;;;;;9.95;7.95;;;24.90;99.90;;;;;;5049832;28;20221;-68
2022/08/14 07:15:55;;;;;;;9.10;7.85;;;25.00;99.90;;;;;;5037419;28;20223;-69
2022/08/14 07:18:29;;;;;;;9.63;8.13;;;25.40;99.90;;;;;;5049782;28;20225;-69
2022/08/14 07:20:58;;;;;;;10.63;8.40;;;25.70;99.90;;;;;;5049789;28;20195;-69
2022/08/14 07:23:25;;;;;;;11.30;8.30;;;25.90;99.90;;;;;;5049637;28;20214;-69
2022/08/14 07:25:55;;;;;;;11.02;8.18;;;26.10;99.90;;;;;;5049385;28;20215;-69
2022/08/14 07:28:25;;;;;;;9.25;7.80;;;26.20;99.90;;;;;;5049666;28;20209;-69
2022/08/14 07:30:56;;;;;;;8.27;7.40;;;26.40;99.90;;;;;;5049254;28;20697;-69
2022/08/14 07:33:33;;;;;;;10.77;8.02;;;26.60;99.90;;;;;;5065507;28;20807;-70
2022/08/14 07:36:05;;;;;;;8.50;7.60;;;26.90;99.90;;;;;;5069218;28;20226;-69
2022/08/14 07:38:52;;;;;;;11.27;7.53;;;26.90;99.90;;;;;;5049993;28;20199;-69
2022/08/14 07:41:19;;;;;;;8.25;7.45;;;27.00;99.90;;;;;;5049387;28;20195;-69
2022/08/14 07:43:45;;;;;;;9.30;8.32;;;27.10;99.90;;;;;;5049355;28;20207;-69
2022/08/14 07:46:22;;;;;;;9.27;7.80;;;27.20;99.90;;;;;;5049512;28;20372;-69
2022/08/14 07:48:55;;;;;;;9.43;7.72;;;26.90;99.90;;;;;;5049876;28;20199;-68
2022/08/14 07:51:22;;;;;;;10.40;7.57;;;26.70;99.90;;;;;;5053329;28;20207;-69
2022/08/14 07:53:50;;;;;;;8.65;7.55;;;26.80;99.90;;;;;;5052869;28;20203;-68
2022/08/14 07:56:23;;;;;;;10.15;7.63;;;26.90;99.90;;;;;;5052783;28;20219;-69
2022/08/14 07:59:10;;;;;;;8.73;7.78;;;26.90;99.90;;;;;;5053405;28;20198;-69
2022/08/14 08:01:39;;;;;;;11.75;8.00;;;26.80;99.90;;;;;;5052913;28;20283;-69
2022/08/14 08:04:22;;;;;;;10.50;7.72;;;26.80;99.90;;;;;;5052772;28;20204;-69
2022/08/14 08:06:51;;;;;;;9.02;7.55;;;26.90;99.90;;;;;;5052841;28;20222;-69
2022/08/14 08:09:23;;;;;;;8.52;7.63;;;27.10;99.90;;;;;;5052833;28;20738;-69
2022/08/14 08:12:00;;;;;;;9.07;8.05;;;26.90;99.90;;;;;;5052796;28;20195;-69
2022/08/14 08:14:33;;;;;;;8.48;7.68;;;27.00;99.90;;;;;;5052348;28;20209;-69
2022/08/14 08:17:22;;;;;;;8.55;7.70;;;27.20;99.90;;;;;;5052822;28;20222;-69
2022/08/14 08:19:49;;;;;;;9.48;7.70;;;27.40;99.90;;;;;;5052764;28;20187;-69
2022/08/14 08:22:19;;;;;;;8.88;7.65;;;27.40;99.90;;;;;;5052569;28;20191;-69
2022/08/14 08:24:46;;;;;;;10.80;7.53;;;27.30;99.90;;;;;;5063272;28;20193;-70
2022/08/14 08:27:18;;;;;;;8.50;7.50;;;27.20;99.90;;;;;;5072239;28;20195;-69
2022/08/14 08:29:47;;;;;;;9.60;7.43;;;27.00;99.90;;;;;;5072603;28;20562;-69
2022/08/14 08:32:16;;;;;;;8.57;7.60;;;27.00;99.90;;;;;;5071231;28;20251;-69
2022/08/14 08:34:45;;;;;;;9.27;7.53;;;26.90;99.90;;;;;;5071950;28;20245;-67
2022/08/14 08:37:13;;;;;;;9.35;7.68;;;26.90;99.90;;;;;;5072014;28;20260;-70
2022/08/14 08:39:47;;;;;;;9.40;7.55;;;26.90;99.90;;;;;;5067790;28;20195;-69
2022/08/14 08:42:27;;;;;;;9.82;7.70;;;27.00;99.90;;;;;;5052037;28;20565;-68
2022/08/14 08:45:04;;;;;;;8.68;7.75;;;27.00;99.90;;;;;;5051659;28;20588;-69
2022/08/14 08:47:39;;;;;;;9.98;8.57;;;26.90;99.90;;;;;;5035235;28;20199;-69
2022/08/14 08:50:26;;;;;;;9.23;7.60;;;27.10;99.90;;;;;;5037367;28;20203;-69
2022/08/14 08:52:59;;;;;;;8.10;7.30;;;27.30;99.90;;;;;;5051839;28;20591;-68
2022/08/14 08:55:54;;;;;;;9.98;7.68;;;27.40;99.90;;;;;;5051449;28;20247;-69
2022/08/14 08:58:21;;;;;;;10.05;7.43;;;27.50;99.90;;;;;;5048068;28;20199;-69
2022/08/14 09:00:54;;;;;;;8.55;7.22;;;27.80;99.90;;;;;;5050367;28;20186;-68
2022/08/14 09:03:27;;;;;;;7.90;7.10;;;28.00;99.90;;;;;;5051627;28;20686;-69
2022/08/14 09:06:00;;;;;;;8.68;7.75;;;28.20;99.90;;;;;;5051417;28;20218;-69
2022/08/14 09:08:31;;;;;;;8.90;7.65;;;28.20;99.90;;;;;;5051466;28;20237;-69
2022/08/14 09:11:05;;;;;;;7.82;7.03;;;28.00;99.90;;;;;;5051466;28;20202;-69
2022/08/14 09:13:51;;;;;;;7.93;7.13;;;27.80;99.90;;;;;;5051660;28;20580;-69
2022/08/14 09:16:24;;;;;;;8.75;7.85;;;27.90;99.90;;;;;;5050880;28;20231;-70
2022/08/14 09:18:51;;;;;;;8.73;7.60;;;28.00;99.90;;;;;;5051336;28;20620;-69
2022/08/14 09:21:20;;;;;;;8.82;7.00;;;28.20;99.90;;;;;;5051241;28;20260;-69
2022/08/14 09:23:50;;;;;;;10.00;7.28;;;28.50;99.90;;;;;;5051128;28;20273;-69
2022/08/14 09:26:38;;;;;;;9.27;7.68;;;28.70;99.90;;;;;;5050962;28;20292;-69
2022/08/14 09:29:05;;;;;;;8.77;7.70;;;28.90;99.90;;;;;;5055790;28;20224;-69
2022/08/14 09:31:33;;;;;;;10.13;7.45;;;29.00;99.90;;;;;;5071064;28;20221;-69
2022/08/14 09:34:39;;;;;;;7.60;6.80;;;28.90;99.90;;;;;;5068497;28;20629;-69
2022/08/14 09:37:27;;;;;;;8.43;7.40;;;29.00;99.90;;;;;;5050930;28;20262;-69
2022/08/14 09:40:22;;;;;;;8.20;7.32;;;29.10;99.90;;;;;;5051072;28;20195;-70
2022/08/14 09:43:09;;;;;;;7.50;6.72;;;29.30;99.90;;;;;;5050717;28;20215;-69
2022/08/14 09:45:45;;;;;;;8.00;7.20;;;29.50;99.90;;;;;;5032772;28;20215;-69
2022/08/14 09:48:24;;;;;;;8.50;7.18;;;29.70;99.90;;;;;;5050976;28;20202;-69
2022/08/14 09:50:57;;;;;;;10.95;7.20;;;29.80;99.90;;;;;;5050722;28;20226;-69
2022/08/14 09:53:43;;;;;;;8.10;6.82;;;29.80;99.90;;;;;;5050970;28;20201;-69
2022/08/14 09:56:30;;;;;;;7.35;6.60;;;29.80;99.90;;;;;;5050459;28;20232;-69
2022/08/14 09:59:13;;;;;;;7.47;6.70;;;29.40;99.90;;;;;;5070198;28;20190;-69
2022/08/14 10:01:42;;;;;;;8.35;7.25;;;29.40;99.90;;;;;;5059222;28;20195;-70
2022/08/14 10:04:23;;;;;;;7.47;6.78;;;29.60;99.90;;;;;;5051243;28;20195;-69
2022/08/14 10:07:04;;;;;;;7.95;7.13;;;29.60;99.90;;;;;;5050269;28;20222;-70
2022/08/14 10:09:31;;;;;;;8.38;7.50;;;29.80;99.90;;;;;;5050126;28;20194;-69
2022/08/14 10:12:01;;;;;;;10.80;7.60;;;29.80;99.90;;;;;;5050621;28;20235;-69
2022/08/14 10:14:33;;;;;;;7.40;6.70;;;29.70;99.90;;;;;;5050512;28;20248;-69
2022/08/14 10:17:04;;;;;;;8.10;7.00;;;29.80;99.90;;;;;;5050130;28;20223;-70
2022/08/14 10:19:45;;;;;;;7.32;6.63;;;30.10;99.90;;;;;;5050444;28;20202;-69
2022/08/14 10:22:12;;;;;;;7.65;6.47;;;30.20;99.90;;;;;;5050552;28;20194;-69
2022/08/14 10:25:09;;;;;;;7.03;6.35;;;29.80;99.90;;;;;;5049870;28;20637;-69
2022/08/14 10:27:36;;;;;;;12.23;6.72;;;29.80;99.90;;;;;;5049886;28;20599;-69
2022/08/14 10:30:15;;;;;;;7.10;6.40;;;30.00;99.90;;;;;;5050158;28;20195;-70
2022/08/14 10:32:48;;;;;;;7.18;6.47;;;30.30;99.90;;;;;;5049939;28;20199;-70
2022/08/14 10:35:18;;;;;;;7.43;6.40;;;30.60;99.90;;;;;;5049501;28;20222;-70
2022/08/14 10:37:50;;;;;;;6.70;6.05;;;30.90;99.90;;;;;;5049903;28;20221;-70
2022/08/14 10:40:28;;;;;;;7.95;5.82;;;31.10;99.90;;;;;;5050089;28;20579;-69
2022/08/14 10:43:16;;;;;;;6.32;5.72;;;31.40;99.90;;;;;;5053678;28;20529;-70
2022/08/14 10:45:56;;;;;;;6.80;5.82;;;31.50;99.90;;;;;;5050453;28;20276;-70
2022/08/14 10:49:03;;;;;;;6.88;6.18;;;31.70;99.90;;;;;;5049966;28;20272;-70
2022/08/14 10:51:33;;;;;;;7.07;6.03;;;31.80;99.90;;;;;;5032435;28;20194;-70
2022/08/14 10:54:07;;;;;;;6.30;5.70;;;31.70;99.90;;;;;;5050102;28;20198;-70
2022/08/14 10:56:54;;;;;;;6.43;5.82;;;31.60;99.70;;;;;;5049843;28;20587;-70
2022/08/14 10:59:21;;;;;;;6.30;5.70;;;31.60;99.80;;;;;;5049535;28;20241;-69
2022/08/14 11:01:57;;;;;;;7.40;5.68;;;31.80;99.60;;;;;;5049660;28;20202;-70
2022/08/14 11:04:27;;;;;;;6.93;5.70;;;32.00;99.10;;;;;;5049831;28;20203;-69
2022/08/14 11:06:55;;;;;;;5.90;5.35;;;32.10;99.00;;;;;;5049422;28;20219;-70
2022/08/14 11:09:22;;;;;;;6.72;5.80;;;32.30;98.30;;;;;;5049482;28;20229;-70
2022/08/14 11:11:55;;;;;;;7.15;5.45;;;32.30;98.40;;;;;;5049978;28;20201;-70
2022/08/14 11:15:01;;;;;;;6.40;5.68;;;32.30;98.10;;;;;;5049553;28;20207;-70
2022/08/14 11:17:31;;;;;;;6.07;5.47;;;32.50;97.90;;;;;;5049362;28;20218;-70
2022/08/14 11:20:00;;;;;;;6.75;5.45;;;32.30;97.90;;;;;;5049415;28;20214;-67
2022/08/14 11:22:29;;;;;;;6.50;5.50;;;32.10;97.90;;;;;;5049488;28;20198;-70
2022/08/14 11:25:18;;;;;;;6.47;5.38;;;31.90;98.10;;;;;;5052206;28;20269;-71
2022/08/14 11:27:46;;;;;;;5.60;5.10;;;31.80;97.40;;;;;;5053069;28;20706;-69
2022/08/14 11:30:20;;;;;;;6.82;4.72;;;31.90;97.70;;;;;;5053474;28;20210;-70
2022/08/14 11:33:07;;;;;;;5.80;4.68;;;32.10;96.50;;;;;;5053634;28;20207;-69
2022/08/14 11:35:36;;;;;;;4.97;4.47;;;32.40;95.60;;;;;;5053132;28;20223;-70
2022/08/14 11:38:16;;;;;;;5.80;3.78;;;32.70;95.40;;;;;;5058510;28;20620;-70
2022/08/14 11:40:45;;;;;;;4.70;4.28;;;32.90;93.60;;;;;;5054491;28;20627;-69
2022/08/14 11:43:14;;;;;;;4.93;4.50;;;33.00;93.70;;;;;;5053485;28;20205;-71
2022/08/14 11:45:46;;;;;;;4.63;4.18;;;33.10;94.00;;;;;;5035723;28;20580;-70
2022/08/14 11:48:18;;;;;;;5.25;4.75;;;33.10;94.10;;;;;;5053404;28;20728;-70
2022/08/14 11:51:16;;;;;;;5.43;4.65;;;33.10;94.10;;;;;;5053333;28;20252;-70
2022/08/14 11:53:50;;;;;;;6.82;5.00;;;33.10;94.00;;;;;;5052771;28;20203;-70
2022/08/14 11:56:18;;;;;;;5.60;5.10;;;33.20;93.80;;;;;;5057042;28;20215;-70
2022/08/14 11:58:53;;;;;;;5.65;5.00;;;33.30;93.80;;;;;;5053103;28;20214;-70
2022/08/14 12:01:27;;;;;;;6.97;5.35;;;33.30;93.80;;;;;;5052704;28;20195;-69
2022/08/14 12:04:06;;;;;;;5.60;5.00;;;33.50;93.80;;;;;;5052924;28;20198;-69
2022/08/14 12:06:47;;;;;;;5.72;5.22;;;33.50;94.00;;;;;;5052146;28;20690;-70
2022/08/14 12:09:31;;;;;;;7.10;5.10;;;33.60;94.00;;;;;;5052577;28;20561;-70
2022/08/14 12:11:59;;;;;;;5.22;4.72;;;33.60;93.60;;;;;;5052316;28;20674;-70
2022/08/14 12:14:27;;;;;;;6.63;5.20;;;33.70;94.00;;;;;;5051991;28;20206;-68
2022/08/14 12:17:07;;;;;;;6.25;5.05;;;33.90;93.00;;;;;;5052083;28;20223;-70
2022/08/14 12:19:49;;;;;;;5.78;5.00;;;34.10;91.80;;;;;;5052364;28;20220;-70
2022/08/14 12:22:31;;;;;;;7.43;5.40;;;34.10;91.90;;;;;;5052256;28;20260;-69
2022/08/14 12:25:00;;;;;;;5.22;4.72;;;34.30;91.90;;;;;;5051874;28;20283;-70
2022/08/14 12:27:35;;;;;;;6.60;5.07;;;34.30;91.50;;;;;;5052488;28;20199;-70
2022/08/14 12:30:09;;;;;;;8.05;4.82;;;34.20;91.70;;;;;;5051957;28;20195;-69
2022/08/14 12:32:47;;;;;;;6.50;5.22;;;34.10;91.50;;;;;;5052035;28;20281;-70
2022/08/14 12:35:13;;;;;;;6.00;5.18;;;34.10;91.60;;;;;;5052175;28;20218;-69
2022/08/14 12:37:49;;;;;;;6.00;5.30;;;34.10;92.00;;;;;;5051858;28;20313;-70
2022/08/14 12:40:21;;;;;;;5.93;5.22;;;34.00;91.00;;;;;;5051953;28;20637;-70
2022/08/14 12:42:51;;;;;;;6.00;5.40;;;34.10;91.60;;;;;;5051887;28;20801;-70
2022/08/14 12:45:32;;;;;;;5.65;5.10;;;34.20;91.50;;;;;;5058843;28;20635;-70
2022/08/14 12:48:00;;;;;;;6.47;5.10;;;34.40;91.70;;;;;;5051782;28;20199;-70
2022/08/14 12:50:51;;;;;;;8.20;5.65;;;34.40;91.40;;;;;;5051819;28;20199;-69
2022/08/14 12:53:19;;;;;;;6.03;5.43;;;34.40;90.90;;;;;;5051701;28;20191;-69
2022/08/14 12:55:59;;;;;;;8.60;5.97;;;34.40;91.10;;;;;;5051135;28;20260;-70
2022/08/14 12:58:56;;;;;;;8.00;5.97;;;34.50;90.50;;;;;;5051420;28;20275;-70
2022/08/14 13:01:28;;;;;;;7.28;5.32;;;34.50;90.50;;;;;;5051568;28;20198;-70
2022/08/14 13:04:07;;;;;;;7.07;5.75;;;34.50;90.00;;;;;;5051650;28;20202;-70
2022/08/14 13:06:37;;;;;;;7.47;5.85;;;34.60;90.20;;;;;;5033698;28;20318;-70
2022/08/14 13:09:05;;;;;;;7.40;5.63;;;34.40;90.20;;;;;;5051709;28;20199;-70
2022/08/14 13:11:44;;;;;;;6.05;5.40;;;34.40;89.80;;;;;;5051294;28;20199;-70
2022/08/14 13:14:24;;;;;;;7.22;5.80;;;34.40;90.00;;;;;;5051463;28;20202;-70
2022/08/14 13:16:56;;;;;;;7.68;6.03;;;34.40;90.40;;;;;;5050919;28;20226;-69
2022/08/14 13:19:24;;;;;;;9.48;5.50;;;34.40;90.00;;;;;;5051370;28;20337;-69
2022/08/14 13:21:54;;;;;;;6.70;5.65;;;34.40;90.20;;;;;;5051547;28;20282;-70
2022/08/14 13:24:38;;;;;;;7.93;7.10;;;34.40;90.00;;;;;;5051329;28;20661;-69
2022/08/14 13:27:07;;;;;;;7.13;6.43;;;34.50;90.00;;;;;;5058026;28;20321;-69
2022/08/14 13:29:42;;;;;;;6.97;5.55;;;34.60;89.10;;;;;;5051295;28;20206;-69
2022/08/14 13:32:13;;;;;;;5.70;5.20;;;34.70;88.00;;;;;;5051724;28;20391;-70
2022/08/14 13:34:42;;;;;;;7.18;4.93;;;34.60;88.30;;;;;;5050566;28;20689;-69
2022/08/14 13:37:15;;;;;;;5.10;4.60;;;34.60;87.40;;;;;;5050672;28;20736;-69